Mistral — TCCH — position and weather

sailwx.info

Track history (hours):
 
Tides and Currents Weather Stations Pressure Air Temp Water Temp Dewpoint Dewpoint Depression Visibility Wind Speed Wind Dir Waves Ship Positions

Mistral

Last reported at 2014-Nov-26 22:24 UTC. Time now 2014-Nov-27 22:59 UTC.
Position N 41°00' E 028°60'.

; draft 4.6 m.

Type: Cargo ship. MMSI: 271000615.

Date/timePositionNaut miles runAvg speedWind from/ knotsBaromVisibWave heightAir tempDewpointWater temp
2014-Nov-26 22:24N 41°00' E 028°60'6 6.5
2014-Nov-26 21:33N 40°55' E 028°58'3 3.4
2014-Nov-26 20:33N 40°58' E 028°56'0 0.0
2014-Nov-26 19:23N 40°58' E 028°56'0 0.0
2014-Nov-26 18:26N 40°58' E 028°56'0 0.1
2014-Nov-26 17:27N 40°58' E 028°56'5 5.4
2014-Nov-26 16:32N 40°53' E 028°54'9 8.2
2014-Nov-26 15:29N 40°50' E 028°44'102 7.7
2014-Nov-26 02:16N 40°19' E 026°36'146 5.7
2014-Nov-25 00:33N 37°52' E 026°26'32 8.0
2014-Nov-24 20:31N 37°25' E 026°48'  
Track history (hours):
 
Tides and Currents Weather Stations Pressure Air Temp Water Temp Dewpoint Dewpoint Depression Visibility Wind Speed Wind Dir Waves Ship Positions

Mistral

Last reported at 2014-Nov-26 22:24 UTC. Time now 2014-Nov-27 22:59 UTC.
Position N 41°00' E 028°60'.

; draft 4.6 m.

Type: Cargo ship. MMSI: 271000615.

Date/timePositionNaut miles runAvg speedWind from/ knotsBaromVisibWave heightAir tempDewpointWater temp
2014-Nov-26 22:24N 41°00' E 028°60'6 6.5
2014-Nov-26 21:33N 40°55' E 028°58'3 3.4
2014-Nov-26 20:33N 40°58' E 028°56'0 0.0
2014-Nov-26 19:23N 40°58' E 028°56'0 0.0
2014-Nov-26 18:26N 40°58' E 028°56'0 0.1
2014-Nov-26 17:27N 40°58' E 028°56'5 5.4
2014-Nov-26 16:32N 40°53' E 028°54'9 8.2
2014-Nov-26 15:29N 40°50' E 028°44'102 7.7
2014-Nov-26 02:16N 40°19' E 026°36'146 5.7
2014-Nov-25 00:33N 37°52' E 026°26'32 8.0
2014-Nov-24 20:31N 37°25' E 026°48'  

Dump ship's entire track history